aviador You're here:

LWSK Decoded Metar

SKOPJE in FORMER MACEDONIA
Report Time2018-05-20 22:30:00
UTC Time2018-05-20 23:05:38
Flight Rules vfr VFR
Wind130° at 06 kt
W.Decomp.*RWY 16: 5.1 kt HW 3.2 kt LCW
W.Rank130° ranks 8
Current wind is above 130° avg. (4.3)
Visibility9999 m
Phenomena:N/A
Clouds:Scattered 046 Hf
Broken 090 Hf
Expected CloudBase > 2,000 ft AGL from Temp-Dew spread
Ceiling9,000 ft
Temp19°C (ISA +6)
Dew Point14°C (73% RH)
AAT18.1°C
QNH1017 hPa
Density Alt1,516 ft
Elevation784 ft
Report Wrong Elevation
Raw Report
LWSK 202230Z 13006KT 9999 SCT046 BKN090 19/14 Q1017 NOSIG=

Extra information for LWSK:More info

Metar Taf Metar & Taf Last 4 Metars F.Rules Stats Wind Profile Meteogram Temp Stats Airport Information Weather charts Add Link Nearby VenuesMetar ALERT Operation Metar Decoded Social comments

Airport Page